createdAt,value
2023-02-01T00:00:00.306Z,988.1463
2023-02-01T00:01:00.425Z,988.1247
2023-02-01T00:02:00.494Z,988.06
2023-02-01T00:03:00.612Z,988.2313
2023-02-01T00:04:00.784Z,987.9993
2023-02-01T00:05:00.829Z,988.1692
2023-02-01T00:06:00.979Z,988.2029
2023-02-01T00:07:01.045Z,988.2779
2023-02-01T00:08:01.119Z,988.1247
2023-02-01T00:10:00.359Z,987.9251
2023-02-01T00:11:00.471Z,988.0951
2023-02-01T00:12:00.569Z,988.0398
2023-02-01T00:13:00.649Z,987.9197
2023-02-01T00:14:00.759Z,988.183
2023-02-01T00:15:00.857Z,987.9282
2023-02-01T00:16:01.048Z,988.0897
2023-02-01T00:17:01.081Z,987.9899
2023-02-01T00:18:01.198Z,988.1463
2023-02-01T00:19:00.280Z,988.1527
2023-02-01T00:20:00.393Z,988.06
2023-02-01T00:21:00.489Z,988.0668
2023-02-01T00:22:00.599Z,988.1517
2023-02-01T00:23:00.724Z,988.1167
2023-02-01T00:24:00.803Z,988.1517
2023-02-01T00:25:00.917Z,988.0816
2023-02-01T00:26:01.014Z,988.1032
2023-02-01T00:27:01.129Z,988.1733
2023-02-01T00:28:00.241Z,988.1244
2023-02-01T00:29:00.354Z,988.1315
2023-02-01T00:30:00.466Z,988.0681
2023-02-01T00:31:00.699Z,988.1547
2023-02-01T00:32:00.719Z,987.979
2023-02-01T00:33:00.777Z,988.1274
2023-02-01T00:34:00.888Z,987.9157
2023-02-01T00:35:01.009Z,987.9514
2023-02-01T00:36:01.121Z,988.0084
2023-02-01T00:37:01.214Z,988.0161
2023-02-01T00:38:00.315Z,987.981
2023-02-01T00:39:00.442Z,988.0242
2023-02-01T00:40:00.531Z,988.2008
2023-02-01T00:41:00.617Z,987.9608
2023-02-01T00:42:00.737Z,988.074
2023-02-01T00:43:00.852Z,988.1252
2023-02-01T00:44:00.941Z,988.1599
2023-02-01T00:45:01.068Z,987.9618
2023-02-01T00:46:01.190Z,988.0535
2023-02-01T00:47:00.255Z,988.4114
2023-02-01T00:48:00.365Z,988.0049
2023-02-01T00:49:00.461Z,988.3063
2023-02-01T00:50:00.568Z,988.2182
2023-02-01T00:51:03.221Z,988.2233
2023-02-01T00:52:00.782Z,988.0969
2023-02-01T00:53:00.897Z,988.2462
2023-02-01T00:54:01.008Z,988.1905
2023-02-01T00:55:01.121Z,988.2802
2023-02-01T00:56:01.236Z,988.3214
2023-02-01T00:57:00.333Z,988.2648
2023-02-01T00:58:00.421Z,988.2256
2023-02-01T00:59:00.528Z,988.1464
2023-02-01T01:00:00.658Z,988.4114
2023-02-01T01:01:00.740Z,988.2622
2023-02-01T01:02:00.891Z,988.4536
2023-02-01T01:03:00.947Z,988.4185
2023-02-01T01:04:01.060Z,988.4047
2023-02-01T01:05:01.182Z,988.2622
2023-02-01T01:06:00.262Z,988.1725
2023-02-01T01:07:00.354Z,988.304
2023-02-01T01:08:00.483Z,988.2358
2023-02-01T01:09:00.585Z,988.4886
2023-02-01T01:10:00.696Z,988.4185
2023-02-01T01:11:00.796Z,988.3346
2023-02-01T01:12:00.871Z,988.2465
2023-02-01T01:13:00.986Z,988.5407
2023-02-01T01:14:01.089Z,988.4346
2023-02-01T01:15:01.178Z,988.2928
2023-02-01T01:16:00.334Z,988.3854
2023-02-01T01:17:00.399Z,988.605
2023-02-01T01:18:00.495Z,988.4014
2023-02-01T01:19:00.602Z,988.5712
2023-02-01T01:20:00.696Z,988.5509
2023-02-01T01:21:00.805Z,988.4863
2023-02-01T01:22:00.920Z,988.3368
2023-02-01T01:23:01.016Z,988.4352
2023-02-01T01:24:01.136Z,988.3214
2023-02-01T01:25:01.245Z,988.4548
2023-02-01T01:26:00.334Z,988.3346
2023-02-01T01:27:00.480Z,988.4195
2023-02-01T01:28:00.542Z,988.3699
2023-02-01T01:29:00.696Z,988.3484
2023-02-01T01:30:00.755Z,988.2648
2023-02-01T01:31:00.948Z,988.2182
2023-02-01T01:32:00.988Z,988.2937
2023-02-01T01:33:01.080Z,988.2465
2023-02-01T01:34:01.195Z,988.3143
2023-02-01T01:35:00.301Z,988.2648
2023-02-01T01:36:00.404Z,988.2654
2023-02-01T01:37:00.523Z,988.4195
2023-02-01T01:38:00.620Z,988.4478
2023-02-01T01:39:00.746Z,988.3063
2023-02-01T01:40:00.829Z,988.3133
2023-02-01T01:41:00.943Z,988.3764
2023-02-01T01:42:01.039Z,988.4185
2023-02-01T01:43:01.131Z,988.1384
2023-02-01T01:44:00.238Z,988.1882
2023-02-01T01:45:00.340Z,988.3063
2023-02-01T01:46:00.457Z,988.3063
2023-02-01T01:47:00.652Z,988.2182
2023-02-01T01:48:00.665Z,988.3063
2023-02-01T01:49:00.778Z,988.3133
2023-02-01T01:50:00.878Z,988.3214
2023-02-01T01:51:00.990Z,988.169
2023-02-01T01:52:01.114Z,988.2471
2023-02-01T01:53:01.195Z,988.2182
2023-02-01T01:54:00.305Z,988.2182
2023-02-01T01:55:00.399Z,988.2182
2023-02-01T01:56:00.524Z,987.9403
2023-02-01T01:57:00.632Z,988.0332
2023-02-01T01:58:00.733Z,988.0201
2023-02-01T01:59:00.840Z,988.3063
2023-02-01T02:00:00.919Z,987.9642
2023-02-01T02:01:01.142Z,988.169
2023-02-01T02:02:01.203Z,987.9554
2023-02-01T02:03:00.266Z,988.0898
2023-02-01T02:04:00.355Z,987.9635
2023-02-01T02:05:00.458Z,988.169
2023-02-01T02:06:00.555Z,988.0639
2023-02-01T02:07:00.698Z,987.9587
2023-02-01T02:08:00.842Z,987.9587
2023-02-01T02:09:00.904Z,988.0639
2023-02-01T02:10:01.591Z,987.9867
2023-02-01T02:11:01.104Z,987.8616
2023-02-01T02:12:01.196Z,987.8198
2023-02-01T02:13:00.303Z,988.0945
2023-02-01T02:14:00.406Z,987.9668
2023-02-01T02:15:00.527Z,987.9517
2023-02-01T02:16:00.635Z,987.7404
2023-02-01T02:17:00.728Z,988.0217
2023-02-01T02:18:00.844Z,987.9517
2023-02-01T02:19:00.947Z,987.8899
2023-02-01T02:20:01.052Z,987.7188
2023-02-01T02:21:01.151Z,987.831
2023-02-01T02:22:00.261Z,987.7461
2023-02-01T02:23:00.390Z,987.5423
2023-02-01T02:24:00.459Z,987.6194
2023-02-01T02:25:00.589Z,987.6329
2023-02-01T02:26:00.680Z,988.0639
2023-02-01T02:27:00.796Z,987.7124
2023-02-01T02:28:00.921Z,987.9166
2023-02-01T02:29:01.017Z,987.6487
2023-02-01T02:30:01.158Z,987.549
2023-02-01T02:31:01.320Z,987.5709
2023-02-01T02:32:00.326Z,987.5773
2023-02-01T02:33:00.416Z,987.5639
2023-02-01T02:34:00.531Z,987.5154
2023-02-01T02:35:00.650Z,987.4588
2023-02-01T02:36:00.746Z,987.5787
2023-02-01T02:37:00.857Z,987.4238
2023-02-01T02:38:00.951Z,987.404
2023-02-01T02:39:01.045Z,987.7916
2023-02-01T02:40:01.163Z,987.5709
2023-02-01T02:41:00.280Z,987.6046
2023-02-01T02:42:00.377Z,987.4496
2023-02-01T02:43:00.479Z,987.4857
2023-02-01T02:44:00.588Z,987.3648
2023-02-01T02:45:00.733Z,987.5197
2023-02-01T02:46:00.866Z,987.548
2023-02-01T02:47:00.895Z,987.4631
2023-02-01T02:48:01.007Z,987.4065
2023-02-01T02:49:01.111Z,987.5197
2023-02-01T02:50:01.228Z,987.4631
2023-02-01T02:51:00.327Z,987.5062
2023-02-01T02:52:00.453Z,987.5197
2023-02-01T02:53:00.537Z,987.2516
2023-02-01T02:54:00.633Z,987.4631
2023-02-01T02:55:00.756Z,987.6329
2023-02-01T02:56:00.859Z,987.4132
2023-02-01T02:57:00.971Z,987.4981
2023-02-01T02:58:01.061Z,987.5197
2023-02-01T02:59:01.179Z,987.4496
2023-02-01T03:00:00.269Z,987.5628
2023-02-01T03:01:00.440Z,987.5345
2023-02-01T03:02:00.500Z,987.3577
2023-02-01T03:03:00.719Z,987.3931
2023-02-01T03:04:00.709Z,987.5197
2023-02-01T03:05:00.817Z,987.4631
2023-02-01T03:06:00.993Z,987.4631
2023-02-01T03:07:01.025Z,987.4426
2023-02-01T03:08:01.132Z,987.5558
2023-02-01T03:09:00.247Z,987.5558
2023-02-01T03:10:00.346Z,987.5197
2023-02-01T03:11:00.472Z,987.3283
2023-02-01T03:12:00.561Z,987.3365
2023-02-01T03:13:00.649Z,987.4065
2023-02-01T03:14:00.761Z,987.4065
2023-02-01T03:15:00.889Z,987.5763
2023-02-01T03:16:01.011Z,987.3499
2023-02-01T03:17:01.088Z,987.4496
2023-02-01T03:18:01.194Z,987.6194
2023-02-01T03:19:00.300Z,987.5143
2023-02-01T03:20:00.393Z,987.4238
2023-02-01T03:21:00.522Z,987.3739
2023-02-01T03:22:00.669Z,987.6003
2023-02-01T03:23:00.723Z,987.4238
2023-02-01T03:24:00.820Z,987.6003
2023-02-01T03:25:00.943Z,987.7916
2023-02-01T03:26:01.063Z,987.5087
2023-02-01T03:27:01.134Z,987.7916
2023-02-01T03:28:00.268Z,987.4888
2023-02-01T03:29:00.341Z,987.5652
2023-02-01T03:30:00.453Z,987.7916
2023-02-01T03:31:00.595Z,987.4804
2023-02-01T03:32:00.689Z,987.4238
2023-02-01T03:33:00.784Z,987.4238
2023-02-01T03:34:00.857Z,987.3456
2023-02-01T03:35:00.967Z,987.5504
2023-02-01T03:36:01.092Z,987.4723
2023-02-01T03:37:01.172Z,987.6703
2023-02-01T03:38:00.304Z,987.8266
2023-02-01T03:39:00.392Z,987.5652
2023-02-01T03:40:00.514Z,987.5935
2023-02-01T03:41:00.615Z,987.7916
2023-02-01T03:42:00.723Z,987.5369
2023-02-01T03:43:00.823Z,987.7916
2023-02-01T03:44:00.939Z,987.5935
2023-02-01T03:45:01.037Z,987.4521
2023-02-01T03:46:01.217Z,987.3807
2023-02-01T03:48:00.342Z,987.4238
2023-02-01T03:49:00.434Z,987.7916
2023-02-01T03:50:00.546Z,987.4521
2023-02-01T03:51:00.651Z,987.5814
2023-02-01T03:52:00.839Z,987.5114
2023-02-01T03:53:00.841Z,987.5609
2023-02-01T03:54:00.981Z,987.6585
2023-02-01T03:55:01.051Z,987.5542
2023-02-01T03:56:01.153Z,987.5044
2023-02-01T03:57:00.264Z,987.5535
2023-02-01T03:58:00.364Z,987.5044
2023-02-01T03:59:00.526Z,987.463
2023-02-01T04:00:00.587Z,987.3505
2023-02-01T04:01:00.773Z,987.3293
2023-02-01T04:02:00.868Z,987.3643
2023-02-01T04:03:00.944Z,987.3643
2023-02-01T04:04:01.032Z,987.3993
2023-02-01T04:05:01.135Z,987.4343
2023-02-01T04:06:01.212Z,987.2424
2023-02-01T04:07:00.332Z,987.1165
2023-02-01T04:08:00.431Z,987.1731
2023-02-01T04:09:00.555Z,987.1017
2023-02-01T04:10:00.671Z,986.9822
2023-02-01T04:11:00.758Z,987.1731
2023-02-01T04:12:00.874Z,987.3223
2023-02-01T04:13:00.989Z,987.1314
2023-02-01T04:14:01.084Z,987.0331
2023-02-01T04:15:01.177Z,987.3223
2023-02-01T04:16:00.290Z,987.096
2023-02-01T04:17:00.393Z,986.9766
2023-02-01T04:18:00.565Z,987.0882
2023-02-01T04:19:00.640Z,987.06
2023-02-01T04:20:00.701Z,987.4064
2023-02-01T04:21:00.797Z,987.3223
2023-02-01T04:22:00.892Z,987.2943
2023-02-01T04:23:01.059Z,987.2876
2023-02-01T04:24:01.111Z,987.1826
2023-02-01T04:25:01.212Z,987.1554
2023-02-01T04:26:00.325Z,987.1339
2023-02-01T04:27:00.426Z,987.1756
2023-02-01T04:28:00.581Z,987.1473
2023-02-01T04:29:00.629Z,987.1473
2023-02-01T04:30:00.746Z,987.1123
2023-02-01T04:31:01.050Z,987.1837
2023-02-01T04:32:00.943Z,987.1123
2023-02-01T04:33:01.058Z,987.0773
2023-02-01T04:34:01.153Z,987.0423
2023-02-01T04:35:00.272Z,987.1056
2023-02-01T04:36:00.370Z,987.0989
2023-02-01T04:37:00.477Z,987.0706
2023-02-01T04:38:00.575Z,986.9144
2023-02-01T04:39:00.681Z,986.9282
2023-02-01T04:40:00.819Z,986.8995
2023-02-01T04:41:00.898Z,987.2523
2023-02-01T04:42:00.991Z,986.9186
2023-02-01T04:43:01.104Z,986.8691
2023-02-01T04:44:01.214Z,986.9751
2023-02-01T04:45:00.327Z,986.9952
2023-02-01T04:46:00.477Z,986.8538
2023-02-01T04:47:00.528Z,986.8177
2023-02-01T04:48:00.616Z,986.858
2023-02-01T04:49:00.732Z,986.8014
2023-02-01T04:50:00.890Z,986.9994
2023-02-01T04:51:00.943Z,986.7731
2023-02-01T04:52:01.068Z,986.8714
2023-02-01T04:53:01.158Z,986.893
2023-02-01T04:54:00.256Z,986.9146
2023-02-01T04:55:00.379Z,986.8297
2023-02-01T04:56:00.462Z,986.6968
2023-02-01T04:57:00.566Z,986.8881
2023-02-01T04:58:00.675Z,986.8177
2023-02-01T04:59:00.783Z,986.8297
2023-02-01T05:00:00.912Z,986.6882
2023-02-01T05:01:01.044Z,986.5915
2023-02-01T05:02:01.163Z,986.6197
2023-02-01T05:03:01.205Z,986.5915
2023-02-01T05:04:00.315Z,986.5021
2023-02-01T05:05:00.518Z,986.5166
2023-02-01T05:06:00.527Z,986.46
2023-02-01T05:07:00.622Z,986.3469
2023-02-01T05:08:00.727Z,986.3391
2023-02-01T05:09:00.851Z,986.3108
2023-02-01T05:10:00.939Z,986.4436
2023-02-01T05:11:01.037Z,986.5002
2023-02-01T05:12:01.153Z,986.5002
2023-02-01T05:13:00.297Z,986.4436
2023-02-01T05:14:02.337Z,986.3108
2023-02-01T05:15:00.485Z,986.3186
2023-02-01T05:16:00.655Z,986.4113
2023-02-01T05:17:00.687Z,986.3052
2023-02-01T05:18:00.808Z,986.3756
2023-02-01T05:19:01.461Z,986.3264
2023-02-01T05:20:00.999Z,986.5751
2023-02-01T05:21:01.120Z,986.3335
2023-02-01T05:22:01.208Z,986.2337
2023-02-01T05:23:00.343Z,986.2624
2023-02-01T05:24:00.415Z,986.348
2023-02-01T05:25:00.535Z,986.3629
2023-02-01T05:26:00.628Z,986.2863
2023-02-01T05:27:00.739Z,986.223
2023-02-01T05:28:00.847Z,986.1311
2023-02-01T05:29:00.949Z,986.2592
2023-02-01T05:30:01.082Z,986.0333
2023-02-01T05:31:01.257Z,985.9846
2023-02-01T05:32:08.457Z,985.943
2023-02-01T05:33:00.380Z,985.9646
2023-02-01T05:34:00.456Z,986.0494
2023-02-01T05:35:00.575Z,986.1138
2023-02-01T05:36:00.679Z,986.0855
2023-02-01T05:37:00.808Z,986.0855
2023-02-01T05:38:00.883Z,986.3545
2023-02-01T05:39:00.982Z,986.1083
2023-02-01T05:40:01.101Z,986.1797
2023-02-01T05:41:01.194Z,986.2916
2023-02-01T05:42:00.308Z,986.2295
2023-02-01T05:43:00.427Z,986.356
2023-02-01T05:44:00.520Z,986.2578
2023-02-01T05:45:00.630Z,986.4408
2023-02-01T05:46:00.733Z,986.2645
2023-02-01T05:47:00.817Z,986.2351
2023-02-01T05:48:00.938Z,986.2633
2023-02-01T05:49:01.054Z,986.433
2023-02-01T05:50:01.134Z,986.2068
2023-02-01T05:51:00.236Z,986.0855
2023-02-01T05:52:00.728Z,986.2756
2023-02-01T05:53:00.446Z,986.1134
2023-02-01T05:54:00.556Z,986.1986
2023-02-01T05:55:00.657Z,986.1216
2023-02-01T05:56:00.758Z,986.0733
2023-02-01T05:57:00.859Z,986.1518
2023-02-01T05:58:00.970Z,986.067
2023-02-01T05:59:02.146Z,985.9818
2023-02-01T06:00:01.182Z,986.173
2023-02-01T06:01:00.284Z,986.0686
2023-02-01T06:02:00.387Z,986.1679
2023-02-01T06:03:00.590Z,985.9645
2023-02-01T06:04:00.698Z,986.2969
2023-02-01T06:05:00.698Z,985.8613
2023-02-01T06:06:00.810Z,985.899
2023-02-01T06:07:00.915Z,986.0198
2023-02-01T06:08:01.026Z,985.9362
2023-02-01T06:09:01.112Z,986.0857
2023-02-01T06:10:01.224Z,986.1421
2023-02-01T06:11:00.339Z,986.079
2023-02-01T06:12:00.459Z,985.9594
2023-02-01T06:13:00.539Z,986.0857
2023-02-01T06:14:00.658Z,985.9511
2023-02-01T06:15:00.767Z,986.1206
2023-02-01T06:16:00.995Z,985.9511
2023-02-01T06:17:01.001Z,986.0641
2023-02-01T06:18:01.070Z,986.1488
2023-02-01T06:19:01.190Z,986.1492
2023-02-01T06:20:00.284Z,986.1339
2023-02-01T06:21:00.385Z,986.0857
2023-02-01T06:22:00.499Z,986.0923
2023-02-01T06:23:00.601Z,986.0492
2023-02-01T06:24:00.684Z,986.021
2023-02-01T06:25:00.805Z,985.9998
2023-02-01T06:26:00.909Z,985.9645
2023-02-01T06:27:01.000Z,986.1339
2023-02-01T06:28:01.122Z,986.1339
2023-02-01T06:29:01.255Z,986.1774
2023-02-01T06:30:00.328Z,986.2622
2023-02-01T06:31:00.599Z,986.3034
2023-02-01T06:32:00.719Z,986.1339
2023-02-01T06:33:00.655Z,986.0492
2023-02-01T06:34:00.788Z,986.1339
2023-02-01T06:35:00.887Z,986.1622
2023-02-01T06:36:00.989Z,986.021
2023-02-01T06:37:01.056Z,986.021
2023-02-01T06:38:01.162Z,986.1622
2023-02-01T06:39:00.273Z,986.2622
2023-02-01T06:40:00.395Z,986.3614
2023-02-01T06:41:00.503Z,986.0723
2023-02-01T06:42:00.579Z,986.0656
2023-02-01T06:43:00.701Z,986.0107
2023-02-01T06:44:00.811Z,985.948
2023-02-01T06:45:00.933Z,986.0821
2023-02-01T06:46:01.015Z,986.1174
2023-02-01T06:47:01.180Z,985.9487
2023-02-01T06:48:01.248Z,985.977
2023-02-01T06:49:00.333Z,986.1456
2023-02-01T06:50:00.442Z,986.1307
2023-02-01T06:51:00.553Z,986.0656
2023-02-01T06:52:00.650Z,986.2484
2023-02-01T06:53:00.764Z,986.1504
2023-02-01T06:54:00.879Z,986.3681
2023-02-01T06:55:00.968Z,986.3034
2023-02-01T06:56:01.083Z,986.1975
2023-02-01T06:57:01.190Z,986.2038
2023-02-01T06:58:00.270Z,986.0343
2023-02-01T06:59:00.385Z,986.0908
2023-02-01T07:00:00.499Z,986.316
2023-02-01T07:01:00.680Z,986.3227
2023-02-01T07:02:00.799Z,985.9825
2023-02-01T07:03:00.809Z,986.0104
2023-02-01T07:04:00.912Z,986.1223
2023-02-01T07:05:01.008Z,986.0873
2023-02-01T07:06:01.122Z,986.0873
2023-02-01T07:07:01.215Z,985.9245
2023-02-01T07:08:00.324Z,986.1223
2023-02-01T07:09:00.437Z,985.9312
2023-02-01T07:10:00.533Z,985.9096
2023-02-01T07:11:00.664Z,985.9661
2023-02-01T07:12:00.761Z,985.8731
2023-02-01T07:13:00.856Z,985.97
2023-02-01T07:14:00.981Z,985.8864
2023-02-01T07:15:01.061Z,986.0426
2023-02-01T07:16:01.242Z,985.9296
2023-02-01T07:17:00.279Z,985.8248
2023-02-01T07:18:00.405Z,985.7683
2023-02-01T07:19:00.503Z,985.8731
2023-02-01T07:20:00.592Z,985.8707
2023-02-01T07:21:00.726Z,985.9752
2023-02-01T07:22:00.850Z,985.8703
2023-02-01T07:23:00.927Z,986.0117
2023-02-01T07:24:01.023Z,985.7722
2023-02-01T07:25:01.133Z,985.8421
2023-02-01T07:26:01.219Z,985.9469
2023-02-01T07:27:00.352Z,985.8491
2023-02-01T07:28:00.435Z,985.8707
2023-02-01T07:29:00.535Z,985.8491
2023-02-01T07:30:00.643Z,985.8837
2023-02-01T07:31:00.784Z,985.7907
2023-02-01T07:32:00.871Z,985.8672
2023-02-01T07:33:00.965Z,985.9214
2023-02-01T07:34:01.069Z,985.8016
2023-02-01T07:35:01.177Z,985.8515
2023-02-01T07:36:00.271Z,985.8366
2023-02-01T07:37:00.400Z,985.8566
2023-02-01T07:38:00.512Z,985.7195
2023-02-01T07:39:00.617Z,985.7824
2023-02-01T07:40:00.731Z,985.663
2023-02-01T07:41:00.845Z,985.8605
2023-02-01T07:42:00.917Z,985.7812
2023-02-01T07:43:01.018Z,985.6931
2023-02-01T07:44:01.141Z,985.7702
2023-02-01T07:45:14.735Z,985.6916
2023-02-01T07:46:00.361Z,985.6621
2023-02-01T07:47:00.441Z,985.8319
2023-02-01T07:48:00.538Z,985.7536
2023-02-01T07:49:00.663Z,985.7025
2023-02-01T07:50:00.815Z,985.666
2023-02-01T07:51:00.878Z,985.5798
2023-02-01T07:52:00.997Z,985.7902
2023-02-01T07:53:01.088Z,985.6199
2023-02-01T07:54:01.203Z,985.6482
2023-02-01T07:55:00.313Z,985.6482
2023-02-01T07:56:00.385Z,985.6486
2023-02-01T07:57:00.509Z,985.4933
2023-02-01T07:58:00.613Z,985.4151
2023-02-01T07:59:00.701Z,985.4583
2023-02-01T08:00:00.808Z,985.4233
2023-02-01T08:01:01.017Z,985.5633
2023-02-01T08:02:01.083Z,985.5283
2023-02-01T08:03:01.131Z,985.5283
2023-02-01T08:04:00.242Z,985.7564
2023-02-01T08:05:00.331Z,985.5633
2023-02-01T08:06:00.456Z,985.4921
2023-02-01T08:07:00.565Z,985.316
2023-02-01T08:08:00.663Z,985.4559
2023-02-01T08:09:00.758Z,985.3776
2023-02-01T08:10:00.874Z,985.5042
2023-02-01T08:11:00.985Z,985.5309
2023-02-01T08:12:01.100Z,985.6493
2023-02-01T08:13:01.198Z,985.6493
2023-02-01T08:14:00.297Z,985.3661
2023-02-01T08:15:00.384Z,985.6493
2023-02-01T08:16:00.486Z,985.5277
2023-02-01T08:17:00.623Z,985.5561
2023-02-01T08:18:00.709Z,985.7543
2023-02-01T08:19:00.809Z,985.2811
2023-02-01T08:20:00.973Z,985.2961
2023-02-01T08:21:01.012Z,985.3861
2023-02-01T08:22:01.133Z,985.512
2023-02-01T08:23:01.227Z,985.5737
2023-02-01T08:24:00.325Z,985.602
2023-02-01T08:25:00.459Z,985.602
2023-02-01T08:26:00.539Z,985.7154
2023-02-01T08:27:00.661Z,985.5103
2023-02-01T08:28:00.740Z,985.602
2023-02-01T08:29:00.849Z,985.4737
2023-02-01T08:30:00.964Z,985.4104
2023-02-01T08:31:01.087Z,985.6087
2023-02-01T08:32:01.245Z,985.6666
2023-02-01T08:33:00.282Z,985.6819
2023-02-01T08:34:00.391Z,985.8314
2023-02-01T08:35:00.476Z,985.7543
2023-02-01T08:36:00.585Z,985.6576
2023-02-01T08:37:00.691Z,985.6246
2023-02-01T08:38:00.775Z,985.5692
2023-02-01T08:39:00.902Z,985.7048
2023-02-01T08:40:00.985Z,985.8263
2023-02-01T08:41:01.111Z,985.7564
2023-02-01T08:42:01.221Z,985.743
2023-02-01T08:43:00.301Z,985.8574
2023-02-01T08:44:00.415Z,985.7874
2023-02-01T08:45:00.498Z,985.916
2023-02-01T08:46:00.685Z,985.8884
2023-02-01T08:47:00.726Z,985.6853
2023-02-01T08:48:00.825Z,985.6853
2023-02-01T08:49:00.948Z,985.6566
2023-02-01T08:50:01.052Z,985.7631
2023-02-01T08:51:01.135Z,985.7065
2023-02-01T08:52:04.132Z,985.6004
2023-02-01T08:53:00.349Z,985.5921
2023-02-01T08:54:00.445Z,985.5355
2023-02-01T08:55:00.562Z,985.6055
2023-02-01T08:56:00.653Z,985.6896
2023-02-01T08:57:00.803Z,985.5764
2023-02-01T08:58:00.870Z,985.4632
2023-02-01T08:59:00.973Z,985.7226
2023-02-01T09:00:01.087Z,985.6365
2023-02-01T09:01:01.189Z,985.5216
2023-02-01T09:02:00.295Z,985.45
2023-02-01T09:03:00.402Z,985.5692
2023-02-01T09:04:00.553Z,985.5259
2023-02-01T09:05:00.635Z,985.7009
2023-02-01T09:06:00.699Z,985.6505
2023-02-01T09:07:00.796Z,985.7909
2023-02-01T09:08:00.890Z,985.6843
2023-02-01T09:09:00.994Z,985.9015
2023-02-01T09:10:01.114Z,985.6103
2023-02-01T09:11:03.153Z,985.7071
2023-02-01T09:12:00.299Z,985.5504
2023-02-01T09:13:00.405Z,985.6413
2023-02-01T09:14:00.503Z,985.5201
2023-02-01T09:15:00.803Z,985.7248
2023-02-01T09:16:01.027Z,985.5964
2023-02-01T09:17:00.846Z,985.6964
2023-02-01T09:18:00.939Z,985.6314
2023-02-01T09:19:24.268Z,985.5768
2023-02-01T09:20:01.148Z,985.648
2023-02-01T09:21:00.267Z,985.5925
2023-02-01T09:22:00.366Z,985.6842
2023-02-01T09:23:00.471Z,985.6264
2023-02-01T09:24:00.578Z,985.5913
2023-02-01T09:25:00.741Z,985.6264
2023-02-01T09:26:00.795Z,985.6397
2023-02-01T09:27:00.908Z,985.513
2023-02-01T09:28:01.010Z,985.6114
2023-02-01T09:29:01.102Z,985.7728
2023-02-01T09:30:01.187Z,985.631
2023-02-01T09:31:00.558Z,985.6814
2023-02-01T09:32:04.111Z,985.7511
2023-02-01T09:33:00.534Z,986.1118
2023-02-01T09:34:00.609Z,985.6865
2023-02-01T09:35:00.725Z,985.707
2023-02-01T09:36:00.832Z,985.7554
2023-02-01T09:37:00.937Z,985.7192
2023-02-01T09:38:01.073Z,985.7676
2023-02-01T09:39:01.145Z,985.8728
2023-02-01T09:40:00.279Z,985.8294
2023-02-01T09:41:00.369Z,985.6798
2023-02-01T09:42:00.461Z,985.8417
2023-02-01T09:43:00.564Z,985.8621
2023-02-01T09:44:00.672Z,985.861
2023-02-01T09:45:00.786Z,985.9528
2023-02-01T09:46:00.943Z,985.896
2023-02-01T09:47:01.000Z,985.952
2023-02-01T09:48:01.138Z,986.0292
2023-02-01T09:49:01.209Z,986.0292
2023-02-01T09:50:00.315Z,986.0643
2023-02-01T09:51:00.410Z,986.0292
2023-02-01T09:52:00.522Z,986.3697
2023-02-01T09:53:00.630Z,985.9244
2023-02-01T09:54:00.723Z,985.952
2023-02-01T09:55:00.878Z,986.0118
2023-02-01T09:56:00.964Z,986.2399
2023-02-01T09:57:01.057Z,986.1347
2023-02-01T09:58:01.200Z,986.1698
2023-02-01T09:59:00.261Z,986.1362
2023-02-01T10:00:00.377Z,986.2497
2023-02-01T10:01:03.025Z,986.1646
2023-02-01T10:02:00.583Z,986.0512
2023-02-01T10:03:00.701Z,986.4467
2023-02-01T10:04:00.785Z,986.3049
2023-02-01T10:05:00.924Z,986.1698
2023-02-01T10:06:01.008Z,986.1698
2023-02-01T10:07:01.116Z,986.1335
2023-02-01T10:08:01.212Z,986.232
2023-02-01T10:09:00.317Z,986.2037
2023-02-01T10:10:00.450Z,986.1604
2023-02-01T10:11:00.529Z,986.2522
2023-02-01T10:12:00.632Z,986.2522
2023-02-01T10:13:00.739Z,986.2727
2023-02-01T10:14:00.846Z,986.2798
2023-02-01T10:15:00.980Z,986.3081
2023-02-01T10:16:01.144Z,986.2014
2023-02-01T10:17:01.300Z,986.4059
2023-02-01T10:18:00.280Z,986.3697
2023-02-01T10:19:00.374Z,986.3969
2023-02-01T10:20:00.501Z,986.5089
2023-02-01T10:21:00.586Z,986.3954
2023-02-01T10:22:00.701Z,986.3454
2023-02-01T10:23:19.496Z,986.3872
2023-02-01T10:24:05.989Z,986.2591
2023-02-01T10:25:01.032Z,986.308
2023-02-01T10:26:01.127Z,986.4066
2023-02-01T10:27:01.220Z,986.243
2023-02-01T10:28:00.330Z,986.3266
2023-02-01T10:29:00.447Z,986.1914
2023-02-01T10:30:00.563Z,986.1547
2023-02-01T10:31:00.773Z,986.2687
2023-02-01T10:32:00.865Z,986.2537
2023-02-01T10:33:00.883Z,986.3378
2023-02-01T10:34:00.972Z,986.2242
2023-02-01T10:35:01.079Z,986.281
2023-02-01T10:36:01.189Z,986.3378
2023-02-01T10:37:00.293Z,986.5365
2023-02-01T10:38:00.410Z,986.4024
2023-02-01T10:39:00.531Z,986.389
2023-02-01T10:40:00.621Z,986.467
2023-02-01T10:41:00.712Z,986.2888
2023-02-01T10:42:00.815Z,986.2253
2023-02-01T10:43:00.909Z,986.556
2023-02-01T10:44:01.022Z,986.4106
2023-02-01T10:45:01.163Z,986.5037
2023-02-01T10:46:01.284Z,986.3617
2023-02-01T10:47:00.335Z,986.4185
2023-02-01T10:48:00.451Z,986.3834
2023-02-01T10:49:00.540Z,986.3065
2023-02-01T10:50:00.682Z,986.5669
2023-02-01T10:51:00.759Z,986.4996
2023-02-01T10:52:00.870Z,986.4294
2023-02-01T10:53:00.989Z,986.4294
2023-02-01T10:54:01.075Z,986.5908
2023-02-01T10:55:01.240Z,986.4656
2023-02-01T10:56:00.306Z,986.4656
2023-02-01T10:57:00.645Z,986.4656
2023-02-01T10:58:00.503Z,986.4656
2023-02-01T10:59:00.607Z,986.4294
2023-02-01T11:00:00.707Z,986.5067
2023-02-01T11:01:00.819Z,986.5669
2023-02-01T11:02:01.099Z,986.6722
2023-02-01T11:03:01.058Z,986.3416
2023-02-01T11:04:01.128Z,986.2213
2023-02-01T11:05:00.230Z,986.6371
2023-02-01T11:06:00.342Z,986.228
2023-02-01T11:07:00.451Z,986.1996
2023-02-01T11:08:00.564Z,986.2698
2023-02-01T11:09:00.644Z,986.2198
2023-02-01T11:10:00.748Z,986.2687
2023-02-01T11:11:00.859Z,986.3389
2023-02-01T11:12:01.008Z,986.0834
2023-02-01T11:13:01.072Z,986.2944
2023-02-01T11:14:01.203Z,986.2862
2023-02-01T11:15:00.295Z,986.2629
2023-02-01T11:16:00.413Z,986.325
2023-02-01T11:17:00.503Z,986.4334
2023-02-01T11:18:00.581Z,986.2914
2023-02-01T11:19:00.727Z,986.2629
2023-02-01T11:20:00.809Z,986.3844
2023-02-01T11:21:00.925Z,986.313
2023-02-01T11:22:01.005Z,986.3414
2023-02-01T11:23:01.106Z,986.4547
2023-02-01T11:24:01.232Z,986.325
2023-02-01T11:25:00.347Z,986.3818
2023-02-01T11:26:00.420Z,986.3534
2023-02-01T11:27:00.538Z,986.4386
2023-02-01T11:28:00.634Z,986.366
2023-02-01T11:29:00.740Z,986.0819
2023-02-01T11:30:00.854Z,986.1679
2023-02-01T11:31:01.063Z,986.3321
2023-02-01T11:32:01.066Z,986.2184
2023-02-01T11:33:01.166Z,986.2816
2023-02-01T11:34:00.290Z,986.2816
2023-02-01T11:35:00.393Z,986.1317
2023-02-01T11:36:00.518Z,986.2008
2023-02-01T11:37:00.611Z,986.1791
2023-02-01T11:38:00.739Z,986.2079
2023-02-01T11:39:00.827Z,986.0291
2023-02-01T11:40:00.942Z,986.2628
2023-02-01T11:41:01.049Z,986.3402
2023-02-01T11:42:01.168Z,986.2699
2023-02-01T11:43:00.252Z,986.1996
2023-02-01T11:44:00.368Z,986.1155
2023-02-01T11:45:00.486Z,986.0871
2023-02-01T11:46:00.619Z,986.052
2023-02-01T11:47:01.172Z,986.1372
2023-02-01T11:48:00.790Z,986.1873